sensor_id;sensor_type;location;lat;lon;timestamp;temperature;humidity
14099;DHT22;7126;48.458;7.930;2023-01-19T00:01:29;0.50;99.90
14099;DHT22;7126;48.458;7.930;2023-01-19T00:03:55;0.50;99.90
14099;DHT22;7126;48.458;7.930;2023-01-19T00:06:21;0.50;99.90
14099;DHT22;7126;48.458;7.930;2023-01-19T00:08:46;0.50;99.90
14099;DHT22;7126;48.458;7.930;2023-01-19T00:11:14;0.50;99.90
14099;DHT22;7126;48.458;7.930;2023-01-19T00:13:42;0.60;99.90
14099;DHT22;7126;48.458;7.930;2023-01-19T00:16:14;0.50;99.90
14099;DHT22;7126;48.458;7.930;2023-01-19T00:18:42;0.50;99.90
14099;DHT22;7126;48.458;7.930;2023-01-19T00:21:07;0.50;99.90
14099;DHT22;7126;48.458;7.930;2023-01-19T00:23:33;0.50;99.90
14099;DHT22;7126;48.458;7.930;2023-01-19T00:25:58;0.50;99.90
14099;DHT22;7126;48.458;7.930;2023-01-19T00:28:24;0.50;99.90
14099;DHT22;7126;48.458;7.930;2023-01-19T00:30:49;0.50;99.90
14099;DHT22;7126;48.458;7.930;2023-01-19T00:33:16;0.50;99.90
14099;DHT22;7126;48.458;7.930;2023-01-19T00:35:42;0.40;99.90
14099;DHT22;7126;48.458;7.930;2023-01-19T00:38:08;0.40;99.90
14099;DHT22;7126;48.458;7.930;2023-01-19T00:40:34;0.40;99.90
14099;DHT22;7126;48.458;7.930;2023-01-19T00:43:00;0.40;99.90
14099;DHT22;7126;48.458;7.930;2023-01-19T00:45:25;0.30;99.90
14099;DHT22;7126;48.458;7.930;2023-01-19T00:47:51;0.30;99.90
14099;DHT22;7126;48.458;7.930;2023-01-19T00:50:22;0.40;99.90
14099;DHT22;7126;48.458;7.930;2023-01-19T00:52:48;0.40;99.90
14099;DHT22;7126;48.458;7.930;2023-01-19T00:55:15;0.40;99.90
14099;DHT22;7126;48.458;7.930;2023-01-19T00:57:41;0.50;99.90
14099;DHT22;7126;48.458;7.930;2023-01-19T01:00:10;0.40;99.90
14099;DHT22;7126;48.458;7.930;2023-01-19T01:02:38;0.40;99.90
14099;DHT22;7126;48.458;7.930;2023-01-19T01:05:04;0.50;99.90
14099;DHT22;7126;48.458;7.930;2023-01-19T01:07:31;0.50;99.90
14099;DHT22;7126;48.458;7.930;2023-01-19T01:10:06;0.50;99.90
14099;DHT22;7126;48.458;7.930;2023-01-19T01:12:33;0.60;99.90
14099;DHT22;7126;48.458;7.930;2023-01-19T01:14:59;0.60;99.90
14099;DHT22;7126;48.458;7.930;2023-01-19T01:17:24;0.70;99.90
14099;DHT22;7126;48.458;7.930;2023-01-19T01:19:50;0.70;99.90
14099;DHT22;7126;48.458;7.930;2023-01-19T01:22:16;0.60;99.90
14099;DHT22;7126;48.458;7.930;2023-01-19T01:24:42;0.60;99.90
14099;DHT22;7126;48.458;7.930;2023-01-19T01:27:08;0.60;99.90
14099;DHT22;7126;48.458;7.930;2023-01-19T01:29:33;0.70;99.90
14099;DHT22;7126;48.458;7.930;2023-01-19T01:32:01;0.70;99.90
14099;DHT22;7126;48.458;7.930;2023-01-19T01:34:26;0.80;99.90
14099;DHT22;7126;48.458;7.930;2023-01-19T01:36:52;0.80;99.90
14099;DHT22;7126;48.458;7.930;2023-01-19T01:39:19;0.70;99.90
14099;DHT22;7126;48.458;7.930;2023-01-19T01:41:44;0.80;99.90
14099;DHT22;7126;48.458;7.930;2023-01-19T01:44:48;0.80;99.90
14099;DHT22;7126;48.458;7.930;2023-01-19T01:47:35;0.80;99.90
14099;DHT22;7126;48.458;7.930;2023-01-19T01:50:07;0.90;99.90
14099;DHT22;7126;48.458;7.930;2023-01-19T01:52:35;0.90;99.90
14099;DHT22;7126;48.458;7.930;2023-01-19T01:55:04;0.90;99.90
14099;DHT22;7126;48.458;7.930;2023-01-19T01:57:39;0.80;99.90
14099;DHT22;7126;48.458;7.930;2023-01-19T02:00:07;0.80;99.90
14099;DHT22;7126;48.458;7.930;2023-01-19T02:02:35;0.80;99.90
14099;DHT22;7126;48.458;7.930;2023-01-19T02:05:23;0.80;99.90
14099;DHT22;7126;48.458;7.930;2023-01-19T02:08:06;0.80;99.90
14099;DHT22;7126;48.458;7.930;2023-01-19T02:10:53;0.80;99.90
14099;DHT22;7126;48.458;7.930;2023-01-19T02:13:40;0.90;99.90
14099;DHT22;7126;48.458;7.930;2023-01-19T02:16:09;0.90;99.90
14099;DHT22;7126;48.458;7.930;2023-01-19T02:18:35;1.00;99.90
14099;DHT22;7126;48.458;7.930;2023-01-19T02:26:08;1.00;99.90
14099;DHT22;7126;48.458;7.930;2023-01-19T02:28:37;0.90;99.90
14099;DHT22;7126;48.458;7.930;2023-01-19T02:31:04;0.90;99.90
14099;DHT22;7126;48.458;7.930;2023-01-19T02:33:30;0.80;99.90
14099;DHT22;7126;48.458;7.930;2023-01-19T02:35:56;0.70;99.90
14099;DHT22;7126;48.458;7.930;2023-01-19T02:38:24;0.70;99.90
14099;DHT22;7126;48.458;7.930;2023-01-19T02:40:52;0.50;99.90
14099;DHT22;7126;48.458;7.930;2023-01-19T02:43:19;0.40;99.90
14099;DHT22;7126;48.458;7.930;2023-01-19T02:45:45;0.50;99.90
14099;DHT22;7126;48.458;7.930;2023-01-19T02:48:13;0.50;99.90
14099;DHT22;7126;48.458;7.930;2023-01-19T02:50:41;0.60;99.90
14099;DHT22;7126;48.458;7.930;2023-01-19T02:56:19;0.50;99.90
14099;DHT22;7126;48.458;7.930;2023-01-19T02:59:05;0.60;99.90
14099;DHT22;7126;48.458;7.930;2023-01-19T03:04:21;0.60;99.90
14099;DHT22;7126;48.458;7.930;2023-01-19T03:06:52;0.70;99.90
14099;DHT22;7126;48.458;7.930;2023-01-19T03:12:26;0.80;99.90
14099;DHT22;7126;48.458;7.930;2023-01-19T03:14:59;0.80;99.90
14099;DHT22;7126;48.458;7.930;2023-01-19T03:17:28;0.90;99.90
14099;DHT22;7126;48.458;7.930;2023-01-19T03:19:56;0.80;99.90
14099;DHT22;7126;48.458;7.930;2023-01-19T03:22:26;0.80;99.90
14099;DHT22;7126;48.458;7.930;2023-01-19T03:24:54;0.70;99.90
14099;DHT22;7126;48.458;7.930;2023-01-19T03:27:24;0.70;99.90
14099;DHT22;7126;48.458;7.930;2023-01-19T03:30:12;0.70;99.90
14099;DHT22;7126;48.458;7.930;2023-01-19T03:32:47;0.70;99.90
14099;DHT22;7126;48.458;7.930;2023-01-19T03:35:14;0.90;99.90
14099;DHT22;7126;48.458;7.930;2023-01-19T03:37:44;1.00;99.90
14099;DHT22;7126;48.458;7.930;2023-01-19T03:40:11;1.00;99.90
14099;DHT22;7126;48.458;7.930;2023-01-19T03:42:37;1.00;99.90
14099;DHT22;7126;48.458;7.930;2023-01-19T03:45:04;1.00;99.90
14099;DHT22;7126;48.458;7.930;2023-01-19T03:47:31;0.90;99.90
14099;DHT22;7126;48.458;7.930;2023-01-19T03:49:57;0.90;99.90
14099;DHT22;7126;48.458;7.930;2023-01-19T03:52:30;0.90;99.90
14099;DHT22;7126;48.458;7.930;2023-01-19T03:55:00;1.00;99.90
14099;DHT22;7126;48.458;7.930;2023-01-19T03:57:26;1.00;99.90
14099;DHT22;7126;48.458;7.930;2023-01-19T03:59:51;0.90;99.90
14099;DHT22;7126;48.458;7.930;2023-01-19T04:02:18;0.80;99.90
14099;DHT22;7126;48.458;7.930;2023-01-19T04:04:43;0.80;99.90
14099;DHT22;7126;48.458;7.930;2023-01-19T04:07:09;0.70;99.90
14099;DHT22;7126;48.458;7.930;2023-01-19T04:09:36;0.70;99.90
14099;DHT22;7126;48.458;7.930;2023-01-19T04:12:01;0.70;99.90
14099;DHT22;7126;48.458;7.930;2023-01-19T04:14:28;0.70;99.90
14099;DHT22;7126;48.458;7.930;2023-01-19T04:16:53;0.70;99.90
14099;DHT22;7126;48.458;7.930;2023-01-19T04:19:19;0.70;99.90
14099;DHT22;7126;48.458;7.930;2023-01-19T04:21:47;0.70;99.90
14099;DHT22;7126;48.458;7.930;2023-01-19T04:24:13;0.70;99.90
14099;DHT22;7126;48.458;7.930;2023-01-19T04:26:38;0.70;99.90
14099;DHT22;7126;48.458;7.930;2023-01-19T04:29:04;0.70;99.90
14099;DHT22;7126;48.458;7.930;2023-01-19T04:31:29;0.60;99.90
14099;DHT22;7126;48.458;7.930;2023-01-19T04:33:55;0.60;99.90
14099;DHT22;7126;48.458;7.930;2023-01-19T04:36:21;0.70;99.90
14099;DHT22;7126;48.458;7.930;2023-01-19T04:38:47;0.70;99.90
14099;DHT22;7126;48.458;7.930;2023-01-19T04:41:13;0.80;99.90
14099;DHT22;7126;48.458;7.930;2023-01-19T04:43:39;0.80;99.90
14099;DHT22;7126;48.458;7.930;2023-01-19T04:46:05;0.80;99.90
14099;DHT22;7126;48.458;7.930;2023-01-19T04:48:31;0.90;99.90
14099;DHT22;7126;48.458;7.930;2023-01-19T04:50:57;0.80;99.90
14099;DHT22;7126;48.458;7.930;2023-01-19T04:53:23;0.80;99.90
14099;DHT22;7126;48.458;7.930;2023-01-19T04:55:54;0.80;99.90
14099;DHT22;7126;48.458;7.930;2023-01-19T04:58:20;0.80;99.90
14099;DHT22;7126;48.458;7.930;2023-01-19T05:00:46;0.80;99.90
14099;DHT22;7126;48.458;7.930;2023-01-19T05:03:12;0.80;99.90
14099;DHT22;7126;48.458;7.930;2023-01-19T05:05:37;0.70;99.90
14099;DHT22;7126;48.458;7.930;2023-01-19T05:08:03;0.80;99.90
14099;DHT22;7126;48.458;7.930;2023-01-19T05:10:28;0.80;99.90
14099;DHT22;7126;48.458;7.930;2023-01-19T05:12:54;0.70;99.90
14099;DHT22;7126;48.458;7.930;2023-01-19T05:15:20;0.80;99.90
14099;DHT22;7126;48.458;7.930;2023-01-19T05:17:46;0.70;99.90
14099;DHT22;7126;48.458;7.930;2023-01-19T05:20:12;0.80;99.90
14099;DHT22;7126;48.458;7.930;2023-01-19T05:22:38;0.90;99.90
14099;DHT22;7126;48.458;7.930;2023-01-19T05:25:05;1.00;99.90
14099;DHT22;7126;48.458;7.930;2023-01-19T05:27:33;1.10;99.90
14099;DHT22;7126;48.458;7.930;2023-01-19T05:29:58;1.00;99.90
14099;DHT22;7126;48.458;7.930;2023-01-19T05:32:24;0.90;99.90
14099;DHT22;7126;48.458;7.930;2023-01-19T05:34:49;0.90;99.90
14099;DHT22;7126;48.458;7.930;2023-01-19T05:37:15;0.90;99.90
14099;DHT22;7126;48.458;7.930;2023-01-19T05:39:40;0.80;99.90
14099;DHT22;7126;48.458;7.930;2023-01-19T05:42:06;0.70;99.90
14099;DHT22;7126;48.458;7.930;2023-01-19T05:44:31;0.60;99.90
14099;DHT22;7126;48.458;7.930;2023-01-19T05:46:57;0.60;99.90
14099;DHT22;7126;48.458;7.930;2023-01-19T05:49:22;0.60;99.90
14099;DHT22;7126;48.458;7.930;2023-01-19T05:51:48;0.50;99.90
14099;DHT22;7126;48.458;7.930;2023-01-19T05:54:14;0.50;99.90
14099;DHT22;7126;48.458;7.930;2023-01-19T05:56:40;0.50;99.90
14099;DHT22;7126;48.458;7.930;2023-01-19T05:59:05;0.60;99.90
14099;DHT22;7126;48.458;7.930;2023-01-19T06:01:31;0.60;99.90
14099;DHT22;7126;48.458;7.930;2023-01-19T06:03:59;0.60;99.90
14099;DHT22;7126;48.458;7.930;2023-01-19T06:06:24;0.70;99.90
14099;DHT22;7126;48.458;7.930;2023-01-19T06:08:50;0.70;99.90
14099;DHT22;7126;48.458;7.930;2023-01-19T06:11:15;0.70;99.90
14099;DHT22;7126;48.458;7.930;2023-01-19T06:13:41;0.70;99.90
14099;DHT22;7126;48.458;7.930;2023-01-19T06:16:07;0.70;99.90
14099;DHT22;7126;48.458;7.930;2023-01-19T06:18:32;0.70;99.90
14099;DHT22;7126;48.458;7.930;2023-01-19T06:21:01;0.60;99.90
14099;DHT22;7126;48.458;7.930;2023-01-19T06:23:29;0.70;99.90
14099;DHT22;7126;48.458;7.930;2023-01-19T06:25:55;0.70;99.90
14099;DHT22;7126;48.458;7.930;2023-01-19T06:28:21;0.70;99.90
14099;DHT22;7126;48.458;7.930;2023-01-19T06:30:49;0.80;99.90
14099;DHT22;7126;48.458;7.930;2023-01-19T06:33:15;0.70;99.90
14099;DHT22;7126;48.458;7.930;2023-01-19T06:35:48;0.60;99.90
14099;DHT22;7126;48.458;7.930;2023-01-19T06:38:15;0.60;99.90
14099;DHT22;7126;48.458;7.930;2023-01-19T06:40:54;0.60;99.90
14099;DHT22;7126;48.458;7.930;2023-01-19T06:43:23;0.60;99.90
14099;DHT22;7126;48.458;7.930;2023-01-19T06:45:49;0.60;99.90
14099;DHT22;7126;48.458;7.930;2023-01-19T06:48:15;0.70;99.90
14099;DHT22;7126;48.458;7.930;2023-01-19T06:50:43;0.70;99.90
14099;DHT22;7126;48.458;7.930;2023-01-19T06:53:09;0.60;99.90
14099;DHT22;7126;48.458;7.930;2023-01-19T06:55:35;0.60;99.90
14099;DHT22;7126;48.458;7.930;2023-01-19T06:58:01;0.60;99.90
14099;DHT22;7126;48.458;7.930;2023-01-19T07:00:26;0.60;99.90
14099;DHT22;7126;48.458;7.930;2023-01-19T07:02:53;0.60;99.90
14099;DHT22;7126;48.458;7.930;2023-01-19T07:05:18;0.60;99.90
14099;DHT22;7126;48.458;7.930;2023-01-19T07:07:50;0.70;99.90
14099;DHT22;7126;48.458;7.930;2023-01-19T07:10:16;0.70;99.90
14099;DHT22;7126;48.458;7.930;2023-01-19T07:12:42;0.70;99.90
14099;DHT22;7126;48.458;7.930;2023-01-19T07:15:10;0.80;99.90
14099;DHT22;7126;48.458;7.930;2023-01-19T07:17:36;0.70;99.90
14099;DHT22;7126;48.458;7.930;2023-01-19T07:20:02;0.70;99.90
14099;DHT22;7126;48.458;7.930;2023-01-19T07:22:27;0.70;99.90
14099;DHT22;7126;48.458;7.930;2023-01-19T07:24:53;0.80;99.90
14099;DHT22;7126;48.458;7.930;2023-01-19T07:27:18;0.80;99.90
14099;DHT22;7126;48.458;7.930;2023-01-19T07:29:44;0.80;99.90
14099;DHT22;7126;48.458;7.930;2023-01-19T07:32:09;0.80;99.90
14099;DHT22;7126;48.458;7.930;2023-01-19T07:34:35;0.80;99.90
14099;DHT22;7126;48.458;7.930;2023-01-19T07:37:01;0.90;99.90
14099;DHT22;7126;48.458;7.930;2023-01-19T07:39:26;0.90;99.90
14099;DHT22;7126;48.458;7.930;2023-01-19T07:41:52;0.90;99.90
14099;DHT22;7126;48.458;7.930;2023-01-19T07:44:17;0.90;99.90
14099;DHT22;7126;48.458;7.930;2023-01-19T07:46:43;1.00;99.90
14099;DHT22;7126;48.458;7.930;2023-01-19T07:49:09;1.10;99.90
14099;DHT22;7126;48.458;7.930;2023-01-19T07:51:34;1.00;99.90
14099;DHT22;7126;48.458;7.930;2023-01-19T07:54:00;1.10;99.90
14099;DHT22;7126;48.458;7.930;2023-01-19T07:56:26;1.10;99.90
14099;DHT22;7126;48.458;7.930;2023-01-19T07:58:54;1.10;99.90
14099;DHT22;7126;48.458;7.930;2023-01-19T08:01:20;1.10;99.90
14099;DHT22;7126;48.458;7.930;2023-01-19T08:03:47;1.20;99.90
14099;DHT22;7126;48.458;7.930;2023-01-19T08:06:19;1.10;99.90
14099;DHT22;7126;48.458;7.930;2023-01-19T08:08:46;1.20;99.90
14099;DHT22;7126;48.458;7.930;2023-01-19T08:11:11;1.20;99.90
14099;DHT22;7126;48.458;7.930;2023-01-19T08:13:37;1.20;99.90
14099;DHT22;7126;48.458;7.930;2023-01-19T08:16:02;1.20;99.90
14099;DHT22;7126;48.458;7.930;2023-01-19T08:18:29;1.20;99.90
14099;DHT22;7126;48.458;7.930;2023-01-19T08:20:54;1.20;99.90
14099;DHT22;7126;48.458;7.930;2023-01-19T08:23:22;1.20;99.90
14099;DHT22;7126;48.458;7.930;2023-01-19T08:25:48;1.10;99.90
14099;DHT22;7126;48.458;7.930;2023-01-19T08:28:17;1.20;99.90
14099;DHT22;7126;48.458;7.930;2023-01-19T08:30:43;1.30;99.90
14099;DHT22;7126;48.458;7.930;2023-01-19T08:33:10;1.40;99.90
14099;DHT22;7126;48.458;7.930;2023-01-19T08:35:39;1.40;99.90
14099;DHT22;7126;48.458;7.930;2023-01-19T08:38:06;1.40;99.90
14099;DHT22;7126;48.458;7.930;2023-01-19T08:40:34;1.50;99.90
14099;DHT22;7126;48.458;7.930;2023-01-19T08:43:05;1.50;99.90
14099;DHT22;7126;48.458;7.930;2023-01-19T08:45:35;1.50;99.90
14099;DHT22;7126;48.458;7.930;2023-01-19T08:48:02;1.50;99.90
14099;DHT22;7126;48.458;7.930;2023-01-19T08:50:30;1.60;99.90
14099;DHT22;7126;48.458;7.930;2023-01-19T08:52:57;1.60;99.90
14099;DHT22;7126;48.458;7.930;2023-01-19T08:55:23;1.70;99.90
14099;DHT22;7126;48.458;7.930;2023-01-19T08:57:51;1.70;99.90
14099;DHT22;7126;48.458;7.930;2023-01-19T09:00:18;1.80;99.90
14099;DHT22;7126;48.458;7.930;2023-01-19T09:02:44;1.90;99.90
14099;DHT22;7126;48.458;7.930;2023-01-19T09:05:09;1.90;99.90
14099;DHT22;7126;48.458;7.930;2023-01-19T09:07:35;2.00;99.90
14099;DHT22;7126;48.458;7.930;2023-01-19T09:10:02;2.00;99.90
14099;DHT22;7126;48.458;7.930;2023-01-19T09:12:28;2.00;99.90
14099;DHT22;7126;48.458;7.930;2023-01-19T09:14:54;2.00;99.90
14099;DHT22;7126;48.458;7.930;2023-01-19T09:17:19;2.00;99.90
14099;DHT22;7126;48.458;7.930;2023-01-19T09:19:45;2.00;99.90
14099;DHT22;7126;48.458;7.930;2023-01-19T09:22:10;2.00;99.90
14099;DHT22;7126;48.458;7.930;2023-01-19T09:24:36;2.00;99.90
14099;DHT22;7126;48.458;7.930;2023-01-19T09:27:01;1.90;99.90
14099;DHT22;7126;48.458;7.930;2023-01-19T09:29:27;2.00;99.90
14099;DHT22;7126;48.458;7.930;2023-01-19T09:31:53;2.00;99.90
14099;DHT22;7126;48.458;7.930;2023-01-19T09:34:18;2.00;99.90
14099;DHT22;7126;48.458;7.930;2023-01-19T09:36:45;2.10;99.90
14099;DHT22;7126;48.458;7.930;2023-01-19T09:39:11;2.10;99.90
14099;DHT22;7126;48.458;7.930;2023-01-19T09:41:38;2.10;99.90
14099;DHT22;7126;48.458;7.930;2023-01-19T09:44:15;2.10;99.90
14099;DHT22;7126;48.458;7.930;2023-01-19T09:46:42;2.20;99.90
14099;DHT22;7126;48.458;7.930;2023-01-19T09:49:18;2.20;99.90
14099;DHT22;7126;48.458;7.930;2023-01-19T09:51:47;2.20;99.90
14099;DHT22;7126;48.458;7.930;2023-01-19T09:54:30;2.30;99.90
14099;DHT22;7126;48.458;7.930;2023-01-19T09:57:00;2.40;99.90
14099;DHT22;7126;48.458;7.930;2023-01-19T09:59:35;2.40;99.90
14099;DHT22;7126;48.458;7.930;2023-01-19T10:04:41;2.60;99.90
14099;DHT22;7126;48.458;7.930;2023-01-19T10:10:15;2.90;99.90
14099;DHT22;7126;48.458;7.930;2023-01-19T10:18:12;3.00;99.90
14099;DHT22;7126;48.458;7.930;2023-01-19T10:20:54;3.00;99.90
14099;DHT22;7126;48.458;7.930;2023-01-19T10:23:43;2.80;99.90
14099;DHT22;7126;48.458;7.930;2023-01-19T10:26:24;2.80;99.90
14099;DHT22;7126;48.458;7.930;2023-01-19T10:29:01;2.90;99.90
14099;DHT22;7126;48.458;7.930;2023-01-19T10:31:27;2.90;99.90
14099;DHT22;7126;48.458;7.930;2023-01-19T10:33:52;3.10;99.90
14099;DHT22;7126;48.458;7.930;2023-01-19T10:36:35;3.30;99.90
14099;DHT22;7126;48.458;7.930;2023-01-19T10:39:05;3.40;99.90
14099;DHT22;7126;48.458;7.930;2023-01-19T10:41:43;3.40;99.90
14099;DHT22;7126;48.458;7.930;2023-01-19T10:44:09;3.60;99.90
14099;DHT22;7126;48.458;7.930;2023-01-19T10:46:42;3.80;99.90
14099;DHT22;7126;48.458;7.930;2023-01-19T10:49:28;3.80;99.90
14099;DHT22;7126;48.458;7.930;2023-01-19T10:51:56;3.80;99.90
14099;DHT22;7126;48.458;7.930;2023-01-19T10:54:23;3.90;99.90
14099;DHT22;7126;48.458;7.930;2023-01-19T10:56:56;4.10;99.90
14099;DHT22;7126;48.458;7.930;2023-01-19T11:02:13;4.40;99.90
14099;DHT22;7126;48.458;7.930;2023-01-19T11:04:40;4.60;99.90
14099;DHT22;7126;48.458;7.930;2023-01-19T11:07:27;4.90;99.90
14099;DHT22;7126;48.458;7.930;2023-01-19T11:12:42;5.30;99.90
14099;DHT22;7126;48.458;7.930;2023-01-19T11:15:41;5.30;99.90
14099;DHT22;7126;48.458;7.930;2023-01-19T11:18:17;5.20;99.90
14099;DHT22;7126;48.458;7.930;2023-01-19T11:20:52;5.20;99.90
14099;DHT22;7126;48.458;7.930;2023-01-19T11:23:23;5.30;99.90
14099;DHT22;7126;48.458;7.930;2023-01-19T11:25:51;5.40;99.90
14099;DHT22;7126;48.458;7.930;2023-01-19T11:28:30;5.50;99.90
14099;DHT22;7126;48.458;7.930;2023-01-19T11:31:02;5.60;99.90
14099;DHT22;7126;48.458;7.930;2023-01-19T11:33:42;5.80;99.90
14099;DHT22;7126;48.458;7.930;2023-01-19T11:38:49;5.70;99.90
14099;DHT22;7126;48.458;7.930;2023-01-19T11:41:18;5.50;99.90
14099;DHT22;7126;48.458;7.930;2023-01-19T11:43:47;5.40;99.90
14099;DHT22;7126;48.458;7.930;2023-01-19T11:46:13;5.20;99.90
14099;DHT22;7126;48.458;7.930;2023-01-19T11:48:44;5.10;99.90
14099;DHT22;7126;48.458;7.930;2023-01-19T11:51:16;5.10;99.90
14099;DHT22;7126;48.458;7.930;2023-01-19T11:53:50;4.90;99.90
14099;DHT22;7126;48.458;7.930;2023-01-19T11:56:17;4.80;99.90
14099;DHT22;7126;48.458;7.930;2023-01-19T11:58:45;4.60;99.90
14099;DHT22;7126;48.458;7.930;2023-01-19T12:03:43;4.50;99.90
14099;DHT22;7126;48.458;7.930;2023-01-19T12:06:29;4.50;99.90
14099;DHT22;7126;48.458;7.930;2023-01-19T12:09:16;4.50;99.90
14099;DHT22;7126;48.458;7.930;2023-01-19T12:11:47;4.40;99.90
14099;DHT22;7126;48.458;7.930;2023-01-19T12:14:18;4.30;99.90
14099;DHT22;7126;48.458;7.930;2023-01-19T12:16:45;4.30;99.90
14099;DHT22;7126;48.458;7.930;2023-01-19T12:19:17;4.30;99.90
14099;DHT22;7126;48.458;7.930;2023-01-19T12:21:43;4.20;99.90
14099;DHT22;7126;48.458;7.930;2023-01-19T12:26:53;4.20;99.90
14099;DHT22;7126;48.458;7.930;2023-01-19T12:29:23;4.30;99.90
14099;DHT22;7126;48.458;7.930;2023-01-19T12:32:33;4.40;99.90
14099;DHT22;7126;48.458;7.930;2023-01-19T12:34:59;4.40;99.90
14099;DHT22;7126;48.458;7.930;2023-01-19T12:37:37;4.40;99.90
14099;DHT22;7126;48.458;7.930;2023-01-19T12:40:20;4.40;99.90
14099;DHT22;7126;48.458;7.930;2023-01-19T12:42:57;4.50;99.90
14099;DHT22;7126;48.458;7.930;2023-01-19T12:45:27;4.60;99.90
14099;DHT22;7126;48.458;7.930;2023-01-19T12:47:54;4.60;99.90
14099;DHT22;7126;48.458;7.930;2023-01-19T12:50:21;4.60;99.90
14099;DHT22;7126;48.458;7.930;2023-01-19T12:52:57;4.60;99.90
14099;DHT22;7126;48.458;7.930;2023-01-19T12:55:29;4.70;99.90
14099;DHT22;7126;48.458;7.930;2023-01-19T13:02:54;4.70;99.90
14099;DHT22;7126;48.458;7.930;2023-01-19T13:05:46;4.70;99.90
14099;DHT22;7126;48.458;7.930;2023-01-19T13:21:46;4.80;99.90
14099;DHT22;7126;48.458;7.930;2023-01-19T13:24:20;4.80;99.90
14099;DHT22;7126;48.458;7.930;2023-01-19T13:29:18;4.70;99.90
14099;DHT22;7126;48.458;7.930;2023-01-19T13:31:45;4.70;99.90
14099;DHT22;7126;48.458;7.930;2023-01-19T13:34:25;4.80;99.90
14099;DHT22;7126;48.458;7.930;2023-01-19T13:36:54;4.80;99.90
14099;DHT22;7126;48.458;7.930;2023-01-19T13:39:23;4.70;99.90
14099;DHT22;7126;48.458;7.930;2023-01-19T13:41:54;4.70;99.90
14099;DHT22;7126;48.458;7.930;2023-01-19T13:44:27;4.70;99.90
14099;DHT22;7126;48.458;7.930;2023-01-19T13:46:54;4.60;99.90
14099;DHT22;7126;48.458;7.930;2023-01-19T13:49:31;4.60;99.90
14099;DHT22;7126;48.458;7.930;2023-01-19T13:52:11;4.50;99.90
14099;DHT22;7126;48.458;7.930;2023-01-19T13:54:49;4.50;99.90
14099;DHT22;7126;48.458;7.930;2023-01-19T13:57:28;4.50;99.90
14099;DHT22;7126;48.458;7.930;2023-01-19T14:05:34;4.50;99.90
14099;DHT22;7126;48.458;7.930;2023-01-19T14:08:25;4.50;99.90
14099;DHT22;7126;48.458;7.930;2023-01-19T14:13:25;4.40;99.90
14099;DHT22;7126;48.458;7.930;2023-01-19T14:15:57;4.30;99.90
14099;DHT22;7126;48.458;7.930;2023-01-19T14:18:27;4.30;99.90
14099;DHT22;7126;48.458;7.930;2023-01-19T14:23:48;4.30;99.90
14099;DHT22;7126;48.458;7.930;2023-01-19T14:29:16;4.30;99.90
14099;DHT22;7126;48.458;7.930;2023-01-19T14:36:57;4.30;99.90
14099;DHT22;7126;48.458;7.930;2023-01-19T14:39:27;4.30;99.90
14099;DHT22;7126;48.458;7.930;2023-01-19T14:41:57;4.30;99.90
14099;DHT22;7126;48.458;7.930;2023-01-19T14:44:37;4.20;99.90
14099;DHT22;7126;48.458;7.930;2023-01-19T14:47:04;4.20;99.90
14099;DHT22;7126;48.458;7.930;2023-01-19T14:52:02;4.30;99.90
14099;DHT22;7126;48.458;7.930;2023-01-19T14:54:36;4.20;99.90
14099;DHT22;7126;48.458;7.930;2023-01-19T14:57:03;4.20;99.90
14099;DHT22;7126;48.458;7.930;2023-01-19T14:59:29;4.10;99.90
14099;DHT22;7126;48.458;7.930;2023-01-19T15:01:55;4.10;99.90
14099;DHT22;7126;48.458;7.930;2023-01-19T15:04:20;4.10;99.90
14099;DHT22;7126;48.458;7.930;2023-01-19T15:06:46;4.10;99.90
14099;DHT22;7126;48.458;7.930;2023-01-19T15:09:13;4.10;99.90
14099;DHT22;7126;48.458;7.930;2023-01-19T15:11:40;4.00;99.90
14099;DHT22;7126;48.458;7.930;2023-01-19T15:14:07;4.00;99.90
14099;DHT22;7126;48.458;7.930;2023-01-19T15:16:35;4.00;99.90
14099;DHT22;7126;48.458;7.930;2023-01-19T15:19:00;4.00;99.90
14099;DHT22;7126;48.458;7.930;2023-01-19T15:21:26;4.00;99.90
14099;DHT22;7126;48.458;7.930;2023-01-19T15:23:52;3.90;99.90
14099;DHT22;7126;48.458;7.930;2023-01-19T15:26:20;3.90;99.90
14099;DHT22;7126;48.458;7.930;2023-01-19T15:28:47;3.90;99.90
14099;DHT22;7126;48.458;7.930;2023-01-19T15:31:15;3.80;99.90
14099;DHT22;7126;48.458;7.930;2023-01-19T15:33:41;3.80;99.90
14099;DHT22;7126;48.458;7.930;2023-01-19T15:36:14;3.90;99.90
14099;DHT22;7126;48.458;7.930;2023-01-19T15:38:41;3.90;99.90
14099;DHT22;7126;48.458;7.930;2023-01-19T15:41:25;3.90;99.90
14099;DHT22;7126;48.458;7.930;2023-01-19T15:43:50;4.00;99.90
14099;DHT22;7126;48.458;7.930;2023-01-19T15:46:18;4.00;99.90
14099;DHT22;7126;48.458;7.930;2023-01-19T15:48:45;4.00;99.90
14099;DHT22;7126;48.458;7.930;2023-01-19T15:51:17;3.90;99.90
14099;DHT22;7126;48.458;7.930;2023-01-19T15:53:43;3.90;99.90
14099;DHT22;7126;48.458;7.930;2023-01-19T15:56:29;3.90;99.90
14099;DHT22;7126;48.458;7.930;2023-01-19T15:58:55;3.90;99.90
14099;DHT22;7126;48.458;7.930;2023-01-19T16:01:24;3.90;99.90
14099;DHT22;7126;48.458;7.930;2023-01-19T16:03:57;3.90;99.90
14099;DHT22;7126;48.458;7.930;2023-01-19T16:06:24;3.80;99.90
14099;DHT22;7126;48.458;7.930;2023-01-19T16:08:49;3.80;99.90
14099;DHT22;7126;48.458;7.930;2023-01-19T16:11:15;3.70;99.90
14099;DHT22;7126;48.458;7.930;2023-01-19T16:13:46;3.70;99.90
14099;DHT22;7126;48.458;7.930;2023-01-19T16:16:16;3.70;99.90
14099;DHT22;7126;48.458;7.930;2023-01-19T16:18:42;3.70;99.90
14099;DHT22;7126;48.458;7.930;2023-01-19T16:21:08;3.80;99.90
14099;DHT22;7126;48.458;7.930;2023-01-19T16:23:33;3.90;99.90
14099;DHT22;7126;48.458;7.930;2023-01-19T16:26:01;3.90;99.90
14099;DHT22;7126;48.458;7.930;2023-01-19T16:28:33;3.90;99.90
14099;DHT22;7126;48.458;7.930;2023-01-19T16:30:58;3.90;99.90
14099;DHT22;7126;48.458;7.930;2023-01-19T16:33:24;3.80;99.90
14099;DHT22;7126;48.458;7.930;2023-01-19T16:35:50;3.80;99.90
14099;DHT22;7126;48.458;7.930;2023-01-19T16:38:15;3.70;99.90
14099;DHT22;7126;48.458;7.930;2023-01-19T16:40:45;3.70;99.90
14099;DHT22;7126;48.458;7.930;2023-01-19T16:43:12;3.60;99.90
14099;DHT22;7126;48.458;7.930;2023-01-19T16:45:58;3.60;99.90
14099;DHT22;7126;48.458;7.930;2023-01-19T16:48:24;3.60;99.90
14099;DHT22;7126;48.458;7.930;2023-01-19T16:51:01;3.60;99.90
14099;DHT22;7126;48.458;7.930;2023-01-19T16:53:28;3.60;99.90
14099;DHT22;7126;48.458;7.930;2023-01-19T16:55:54;3.60;99.90
14099;DHT22;7126;48.458;7.930;2023-01-19T16:58:20;3.60;99.90
14099;DHT22;7126;48.458;7.930;2023-01-19T17:00:46;3.50;99.90
14099;DHT22;7126;48.458;7.930;2023-01-19T17:03:11;3.50;99.90
14099;DHT22;7126;48.458;7.930;2023-01-19T17:05:37;3.60;99.90
14099;DHT22;7126;48.458;7.930;2023-01-19T17:08:02;3.50;99.90
14099;DHT22;7126;48.458;7.930;2023-01-19T17:10:28;3.60;99.90
14099;DHT22;7126;48.458;7.930;2023-01-19T17:12:54;3.60;99.90
14099;DHT22;7126;48.458;7.930;2023-01-19T17:15:19;3.50;99.90
14099;DHT22;7126;48.458;7.930;2023-01-19T17:17:45;3.50;99.90
14099;DHT22;7126;48.458;7.930;2023-01-19T17:20:10;3.50;99.90
14099;DHT22;7126;48.458;7.930;2023-01-19T17:22:36;3.50;99.90
14099;DHT22;7126;48.458;7.930;2023-01-19T17:25:02;3.50;99.90
14099;DHT22;7126;48.458;7.930;2023-01-19T17:27:27;3.50;99.90
14099;DHT22;7126;48.458;7.930;2023-01-19T17:29:53;3.50;99.90
14099;DHT22;7126;48.458;7.930;2023-01-19T17:32:18;3.40;99.90
14099;DHT22;7126;48.458;7.930;2023-01-19T17:34:48;3.30;99.90